createdAt,value
2019-05-29T00:00:51.665Z,67.33
2019-05-29T00:03:22.891Z,67.18
2019-05-29T00:05:52.115Z,66.55
2019-05-29T00:08:21.403Z,66.02
2019-05-29T00:10:50.715Z,66.15
2019-05-29T00:13:20.009Z,65.95
2019-05-29T00:15:49.320Z,65.83
2019-05-29T00:18:18.682Z,65.68
2019-05-29T00:20:47.924Z,65.38
2019-05-29T00:23:17.284Z,65.15
2019-05-29T00:25:46.682Z,64.97
2019-05-29T00:28:16.787Z,65.34
2019-05-29T00:30:46.273Z,65.52
2019-05-29T00:33:15.596Z,65.62
2019-05-29T00:35:45.038Z,65.14
2019-05-29T00:38:14.732Z,65.07
2019-05-29T00:40:44.360Z,65.14
2019-05-29T00:43:13.654Z,65.13
2019-05-29T00:45:42.975Z,65.61
2019-05-29T00:48:12.441Z,65.83
2019-05-29T00:50:42.190Z,66.38
2019-05-29T00:53:12.170Z,66.63
2019-05-29T00:55:42.122Z,66.58
2019-05-29T00:58:11.430Z,67.17
2019-05-29T01:00:40.828Z,66.83
2019-05-29T01:03:10.043Z,66.54
2019-05-29T01:05:39.337Z,66.61
2019-05-29T01:08:08.672Z,66.92
2019-05-29T01:10:38.099Z,67.05
2019-05-29T01:13:07.330Z,67.02
2019-05-29T01:15:36.716Z,67.77
2019-05-29T01:18:06.152Z,68.05
2019-05-29T01:20:35.440Z,69.12
2019-05-29T01:23:04.926Z,69.52
2019-05-29T01:25:34.231Z,70.11
2019-05-29T01:28:03.587Z,70.51
2019-05-29T01:30:32.829Z,70.91
2019-05-29T01:33:02.196Z,71.24
2019-05-29T01:35:31.489Z,71.38
2019-05-29T01:38:00.890Z,71.10
2019-05-29T01:40:30.264Z,71.17
2019-05-29T01:42:59.496Z,70.96
2019-05-29T01:45:28.912Z,70.77
2019-05-29T01:47:58.197Z,70.61
2019-05-29T01:50:27.919Z,70.05
2019-05-29T01:52:57.533Z,69.79
2019-05-29T01:55:27.890Z,69.75
2019-05-29T01:57:57.517Z,70.48
2019-05-29T02:00:28.491Z,69.85
2019-05-29T02:02:57.847Z,68.91
2019-05-29T02:05:28.283Z,67.59
2019-05-29T02:07:57.762Z,67.29
2019-05-29T02:10:27.276Z,67.43
2019-05-29T02:12:56.617Z,67.32
2019-05-29T02:15:32.486Z,67.47
2019-05-29T02:17:57.055Z,67.25
2019-05-29T02:20:27.176Z,66.97
2019-05-29T02:22:56.607Z,66.01
2019-05-29T02:25:26.364Z,66.19
2019-05-29T02:27:56.696Z,66.00
2019-05-29T02:30:30.231Z,65.79
2019-05-29T02:32:57.378Z,65.06
2019-05-29T02:35:28.819Z,65.09
2019-05-29T02:37:57.827Z,64.99
2019-05-29T02:40:29.489Z,64.69
2019-05-29T02:42:58.583Z,64.43
2019-05-29T02:45:50.814Z,64.07
2019-05-29T02:47:58.963Z,64.19
2019-05-29T02:50:29.313Z,64.64
2019-05-29T02:52:59.445Z,65.01
2019-05-29T02:55:28.999Z,65.39
2019-05-29T02:57:58.789Z,65.88
2019-05-29T03:00:45.949Z,66.46
2019-05-29T03:03:15.251Z,67.23
2019-05-29T03:05:44.683Z,68.31
2019-05-29T03:08:14.203Z,68.33
2019-05-29T03:10:43.554Z,68.46
2019-05-29T03:13:12.928Z,68.99
2019-05-29T03:15:42.270Z,69.16
2019-05-29T03:18:11.617Z,69.00
2019-05-29T03:20:41.006Z,68.92
2019-05-29T03:23:10.409Z,68.70
2019-05-29T03:25:39.837Z,68.80
2019-05-29T03:28:09.204Z,67.85
2019-05-29T03:30:45.327Z,67.58
2019-05-29T03:33:09.574Z,67.61
2019-05-29T03:35:47.109Z,67.49
2019-05-29T03:38:09.957Z,67.39
2019-05-29T03:40:39.326Z,67.23
2019-05-29T03:43:08.684Z,66.43
2019-05-29T03:45:38.189Z,66.51
2019-05-29T03:48:07.509Z,66.47
2019-05-29T03:50:38.184Z,66.17
2019-05-29T03:53:07.971Z,65.75
2019-05-29T03:55:37.907Z,65.59
2019-05-29T03:58:07.526Z,65.40
2019-05-29T04:00:45.623Z,65.03
2019-05-29T04:03:08.157Z,64.78
2019-05-29T04:05:37.993Z,64.80
2019-05-29T04:08:07.642Z,64.43
2019-05-29T04:10:39.147Z,64.34
2019-05-29T04:13:08.421Z,64.27
2019-05-29T04:15:38.928Z,63.99
2019-05-29T04:18:08.401Z,63.62
2019-05-29T04:20:38.975Z,63.66
2019-05-29T04:23:08.810Z,63.24
2019-05-29T04:25:42.570Z,63.29
2019-05-29T04:28:09.441Z,63.35
2019-05-29T04:30:39.401Z,62.95
2019-05-29T04:33:08.918Z,62.56
2019-05-29T04:35:39.777Z,62.41
2019-05-29T04:38:09.293Z,62.35
2019-05-29T04:40:39.551Z,62.31
2019-05-29T04:43:09.123Z,62.10
2019-05-29T04:45:39.958Z,62.40
2019-05-29T04:48:09.778Z,61.92
2019-05-29T04:50:40.566Z,62.12
2019-05-29T04:53:10.050Z,61.80
2019-05-29T04:55:39.264Z,61.67
2019-05-29T04:58:08.564Z,61.42
2019-05-29T05:00:37.833Z,61.59
2019-05-29T05:03:07.197Z,61.22
2019-05-29T05:05:37.436Z,61.21
2019-05-29T05:08:07.052Z,61.49
2019-05-29T05:10:40.618Z,61.12
2019-05-29T05:13:10.137Z,61.00
2019-05-29T05:15:40.106Z,60.86
2019-05-29T05:18:10.148Z,60.92
2019-05-29T05:20:40.360Z,60.74
2019-05-29T05:23:10.043Z,60.88
2019-05-29T05:25:40.820Z,61.00
2019-05-29T05:28:10.460Z,60.46
2019-05-29T05:30:40.775Z,60.06
2019-05-29T05:33:10.291Z,59.14
2019-05-29T05:35:40.731Z,58.16
2019-05-29T05:38:10.440Z,58.56
2019-05-29T05:40:42.737Z,58.16
2019-05-29T05:43:23.221Z,57.97
2019-05-29T05:45:41.763Z,58.07
2019-05-29T05:48:11.184Z,58.07
2019-05-29T05:50:41.485Z,58.25
2019-05-29T05:53:11.129Z,58.17
2019-05-29T05:55:41.728Z,58.17
2019-05-29T05:58:11.339Z,58.42
2019-05-29T06:00:41.938Z,58.70
2019-05-29T06:03:11.344Z,58.41
2019-05-29T06:05:40.641Z,58.57
2019-05-29T06:08:10.049Z,58.72
2019-05-29T06:10:40.277Z,58.94
2019-05-29T06:13:09.680Z,58.71
2019-05-29T06:15:43.131Z,59.20
2019-05-29T06:18:21.144Z,59.41
2019-05-29T06:20:43.701Z,59.18
2019-05-29T06:23:13.140Z,59.73
2019-05-29T06:25:43.888Z,60.09
2019-05-29T06:28:13.325Z,60.00
2019-05-29T06:30:44.934Z,60.64
2019-05-29T06:33:14.445Z,60.39
2019-05-29T06:35:43.892Z,60.38
2019-05-29T06:38:13.573Z,60.26
2019-05-29T06:40:44.593Z,60.99
2019-05-29T06:43:21.928Z,60.17
2019-05-29T06:45:51.571Z,61.61
2019-05-29T06:48:42.684Z,61.60
2019-05-29T06:51:00.785Z,62.44
2019-05-29T06:53:30.144Z,62.10
2019-05-29T06:56:01.751Z,61.05
2019-05-29T06:58:31.500Z,61.92
2019-05-29T07:01:00.872Z,61.63
2019-05-29T07:03:30.216Z,61.73
2019-05-29T07:05:59.507Z,63.02
2019-05-29T07:08:39.013Z,63.39
2019-05-29T07:10:59.961Z,63.12
2019-05-29T07:13:29.401Z,61.31
2019-05-29T07:15:58.858Z,61.81
2019-05-29T07:18:28.192Z,61.46
2019-05-29T07:20:58.451Z,61.20
2019-05-29T07:23:27.739Z,61.44
2019-05-29T07:25:57.166Z,61.34
2019-05-29T07:28:26.519Z,61.33
2019-05-29T07:31:01.882Z,60.04
2019-05-29T07:33:27.022Z,60.35
2019-05-29T07:35:56.382Z,59.64
2019-05-29T07:38:25.853Z,59.13
2019-05-29T07:40:55.268Z,58.81
2019-05-29T07:43:24.576Z,58.15
2019-05-29T07:45:53.936Z,57.21
2019-05-29T07:48:23.357Z,56.72
2019-05-29T07:51:06.237Z,56.98
2019-05-29T07:53:23.966Z,56.42
2019-05-29T07:55:53.526Z,56.28
2019-05-29T07:58:22.968Z,56.19
2019-05-29T08:01:09.277Z,55.79
2019-05-29T08:03:23.542Z,55.99
2019-05-29T08:05:53.436Z,55.90
2019-05-29T08:08:23.063Z,54.09
2019-05-29T08:10:52.583Z,54.66
2019-05-29T08:13:21.877Z,54.17
2019-05-29T08:16:01.531Z,54.31
2019-05-29T08:18:22.324Z,55.00
2019-05-29T08:20:51.757Z,54.79
2019-05-29T08:23:21.102Z,54.32
2019-05-29T08:25:51.784Z,54.17
2019-05-29T08:28:21.367Z,53.85
2019-05-29T08:30:55.704Z,54.39
2019-05-29T08:33:21.822Z,52.98
2019-05-29T08:35:59.420Z,53.58
2019-05-29T08:38:22.114Z,53.49
2019-05-29T08:40:51.582Z,53.00
2019-05-29T08:43:20.930Z,50.94
2019-05-29T08:45:50.282Z,50.65
2019-05-29T08:48:19.618Z,49.51
2019-05-29T08:50:49.970Z,48.68
2019-05-29T08:53:19.349Z,46.52
2019-05-29T08:55:49.242Z,45.20
2019-05-29T08:58:19.125Z,46.10
2019-05-29T09:00:53.211Z,46.82
2019-05-29T09:03:19.836Z,46.09
2019-05-29T09:06:04.954Z,44.79
2019-05-29T09:08:20.123Z,46.21
2019-05-29T09:10:49.725Z,46.26
2019-05-29T09:13:19.326Z,45.83
2019-05-29T09:15:48.689Z,45.82
2019-05-29T09:18:19.631Z,46.59
2019-05-29T09:21:02.837Z,46.26
2019-05-29T09:23:20.944Z,44.30
2019-05-29T09:25:50.346Z,43.40
2019-05-29T09:28:20.337Z,45.94
2019-05-29T09:30:49.738Z,46.09
2019-05-29T09:33:21.339Z,46.27
2019-05-29T09:35:50.069Z,45.03
2019-05-29T09:38:20.848Z,44.90
2019-05-29T09:40:52.718Z,46.64
2019-05-29T09:43:27.033Z,48.04
2019-05-29T09:45:52.698Z,47.63
2019-05-29T09:48:25.315Z,46.87
2019-05-29T09:50:53.263Z,46.98
2019-05-29T09:53:22.566Z,47.01
2019-05-29T09:55:52.288Z,46.62
2019-05-29T09:58:23.010Z,45.80
2019-05-29T10:01:09.594Z,46.01
2019-05-29T10:03:23.624Z,46.64
2019-05-29T10:05:54.228Z,46.81
2019-05-29T10:08:24.104Z,46.06
2019-05-29T10:11:01.427Z,45.45
2019-05-29T10:13:24.558Z,42.93
2019-05-29T10:15:54.076Z,41.06
2019-05-29T10:18:31.900Z,41.85
2019-05-29T10:20:56.554Z,42.60
2019-05-29T10:23:27.232Z,42.84
2019-05-29T10:25:58.264Z,41.49
2019-05-29T10:28:27.688Z,38.67
2019-05-29T10:30:57.172Z,37.50
2019-05-29T10:33:26.537Z,38.32
2019-05-29T10:35:56.043Z,38.49
2019-05-29T10:38:25.589Z,38.80
2019-05-29T10:41:05.591Z,38.70
2019-05-29T10:43:34.031Z,40.54
2019-05-29T10:45:57.255Z,41.32
2019-05-29T10:48:26.692Z,40.94
2019-05-29T10:50:56.056Z,39.96
2019-05-29T10:53:25.487Z,39.18
2019-05-29T10:55:55.060Z,38.58
2019-05-29T10:58:24.351Z,37.45
2019-05-29T11:00:53.654Z,38.45
2019-05-29T11:03:22.966Z,39.72
2019-05-29T11:05:53.691Z,41.76
2019-05-29T11:08:23.304Z,41.52
2019-05-29T11:10:52.664Z,41.27
2019-05-29T11:13:22.936Z,40.54
2019-05-29T11:15:52.834Z,39.09
2019-05-29T11:18:22.328Z,37.51
2019-05-29T11:20:51.750Z,37.61
2019-05-29T11:23:21.312Z,37.71
2019-05-29T11:25:51.964Z,37.97
2019-05-29T11:28:22.406Z,38.15
2019-05-29T11:30:53.559Z,38.27
2019-05-29T11:33:23.102Z,38.77
2019-05-29T11:36:06.342Z,37.39
2019-05-29T11:38:23.576Z,36.22
2019-05-29T11:41:20.460Z,37.33
2019-05-29T11:43:24.285Z,37.12
2019-05-29T11:45:53.642Z,36.96
2019-05-29T11:48:23.002Z,35.86
2019-05-29T11:50:52.413Z,34.49
2019-05-29T11:53:22.185Z,36.00
2019-05-29T11:55:52.391Z,36.12
2019-05-29T11:58:31.202Z,37.01
2019-05-29T12:00:53.704Z,36.28
2019-05-29T12:03:23.091Z,35.65
2019-05-29T12:05:53.545Z,36.76
2019-05-29T12:08:22.810Z,37.17
2019-05-29T12:10:53.180Z,37.81
2019-05-29T12:13:22.890Z,37.65
2019-05-29T12:15:53.556Z,38.42
2019-05-29T12:18:24.553Z,43.12
2019-05-29T12:20:54.374Z,44.09
2019-05-29T12:23:26.795Z,43.73
2019-05-29T12:26:12.849Z,45.37
2019-05-29T12:28:26.357Z,45.74
2019-05-29T12:30:56.926Z,46.27
2019-05-29T12:33:26.294Z,46.56
2019-05-29T12:35:56.883Z,47.08
2019-05-29T12:38:26.535Z,47.45
2019-05-29T12:40:57.586Z,47.60
2019-05-29T12:43:28.203Z,48.44
2019-05-29T12:45:57.928Z,46.99
2019-05-29T12:48:27.351Z,47.55
2019-05-29T12:50:58.249Z,47.59
2019-05-29T12:53:30.735Z,47.32
2019-05-29T12:56:00.561Z,47.43
2019-05-29T12:58:30.271Z,47.89
2019-05-29T13:01:00.663Z,48.87
2019-05-29T13:03:30.199Z,51.12
2019-05-29T13:06:00.411Z,54.40
2019-05-29T13:08:29.971Z,58.03
2019-05-29T13:11:00.417Z,61.68
2019-05-29T13:13:29.966Z,61.60
2019-05-29T13:16:00.745Z,65.17
2019-05-29T13:18:30.333Z,69.71
2019-05-29T13:21:00.897Z,71.67
2019-05-29T13:23:44.208Z,74.65
2019-05-29T13:26:01.516Z,73.85
2019-05-29T13:28:45.822Z,71.42
2019-05-29T13:31:18.372Z,71.81
2019-05-29T13:33:47.739Z,73.06
2019-05-29T13:36:17.149Z,73.99
2019-05-29T13:38:46.516Z,74.94
2019-05-29T13:41:15.816Z,74.33
2019-05-29T13:43:45.134Z,72.56
2019-05-29T13:46:14.435Z,74.63
2019-05-29T13:48:45.296Z,72.76
2019-05-29T13:51:14.624Z,75.88
2019-05-29T13:53:43.912Z,75.72
2019-05-29T13:56:16.146Z,75.69
2019-05-29T13:58:44.529Z,75.40
2019-05-29T14:01:13.826Z,73.35
2019-05-29T14:03:43.183Z,69.87
2019-05-29T14:06:12.605Z,69.56
2019-05-29T14:08:41.882Z,71.94
2019-05-29T14:11:11.174Z,73.31
2019-05-29T14:13:40.586Z,73.72
2019-05-29T14:16:10.475Z,72.56
2019-05-29T14:18:39.859Z,73.92
2019-05-29T14:21:09.392Z,73.48
2019-05-29T14:23:39.729Z,74.10
2019-05-29T14:26:09.426Z,73.34
2019-05-29T14:28:38.890Z,72.99
2019-05-29T14:31:08.461Z,73.28
2019-05-29T14:33:38.582Z,72.17
2019-05-29T14:36:09.266Z,70.96
2019-05-29T14:38:38.585Z,71.00
2019-05-29T14:41:08.212Z,73.48
2019-05-29T14:43:39.273Z,72.65
2019-05-29T14:46:10.080Z,71.75
2019-05-29T14:48:39.599Z,72.70
2019-05-29T14:51:09.004Z,73.21
2019-05-29T14:53:38.364Z,73.65
2019-05-29T14:56:08.882Z,73.23
2019-05-29T14:58:38.497Z,73.33
2019-05-29T15:01:09.114Z,73.73
2019-05-29T15:03:38.587Z,73.89
2019-05-29T15:06:07.903Z,73.42
2019-05-29T15:08:37.369Z,73.69
2019-05-29T15:11:07.923Z,72.93
2019-05-29T15:13:37.457Z,73.48
2019-05-29T15:16:06.968Z,72.71
2019-05-29T15:18:36.380Z,73.73
2019-05-29T15:21:06.962Z,75.07
2019-05-29T15:23:38.056Z,74.37
2019-05-29T15:26:07.798Z,74.42
2019-05-29T15:28:37.178Z,74.92
2019-05-29T15:31:06.558Z,73.60
2019-05-29T15:33:35.884Z,73.68
2019-05-29T15:36:06.444Z,73.94
2019-05-29T15:38:36.394Z,72.67
2019-05-29T15:41:06.646Z,73.10
2019-05-29T15:43:36.115Z,72.61
2019-05-29T15:46:08.187Z,73.19
2019-05-29T15:48:36.736Z,73.02
2019-05-29T15:51:06.860Z,73.32
2019-05-29T15:53:36.496Z,73.34
2019-05-29T15:56:18.147Z,71.82
2019-05-29T15:58:37.074Z,71.84
2019-05-29T16:01:07.658Z,72.18
2019-05-29T16:03:37.118Z,72.52
2019-05-29T16:06:07.606Z,72.80
2019-05-29T16:08:37.104Z,72.32
2019-05-29T16:11:06.672Z,72.43
2019-05-29T16:13:38.209Z,73.25
2019-05-29T16:16:09.323Z,72.46
2019-05-29T16:18:38.720Z,73.77
2019-05-29T16:21:08.179Z,74.42
2019-05-29T16:23:37.541Z,73.76
2019-05-29T16:26:07.010Z,73.70
2019-05-29T16:28:36.434Z,72.88
2019-05-29T16:31:05.911Z,73.42
2019-05-29T16:33:35.525Z,73.10
2019-05-29T16:36:05.282Z,72.10
2019-05-29T16:38:34.752Z,72.87
2019-05-29T16:41:04.691Z,73.44
2019-05-29T16:43:34.989Z,74.03
2019-05-29T16:46:04.559Z,72.43
2019-05-29T16:48:33.999Z,72.23
2019-05-29T16:51:03.355Z,70.17
2019-05-29T16:53:32.642Z,69.93
2019-05-29T16:56:02.167Z,70.46
2019-05-29T16:58:31.563Z,70.49
2019-05-29T17:01:00.873Z,69.93
2019-05-29T17:03:30.267Z,67.05
2019-05-29T17:05:59.760Z,64.87
2019-05-29T17:08:29.134Z,65.83
2019-05-29T17:10:58.631Z,66.65
2019-05-29T17:13:28.077Z,67.16
2019-05-29T17:15:57.390Z,67.05
2019-05-29T17:18:27.033Z,67.12
2019-05-29T17:20:56.433Z,67.66
2019-05-29T17:23:25.920Z,68.29
2019-05-29T17:26:09.661Z,69.31
2019-05-29T17:28:28.236Z,69.78
2019-05-29T17:31:01.355Z,69.33
2019-05-29T17:33:28.779Z,68.41
2019-05-29T17:35:58.143Z,67.34
2019-05-29T17:38:27.479Z,66.29
2019-05-29T17:40:56.842Z,67.15
2019-05-29T17:43:28.579Z,68.09
2019-05-29T17:45:57.320Z,69.15
2019-05-29T17:48:26.634Z,70.00
2019-05-29T17:50:55.999Z,70.67
2019-05-29T17:53:26.181Z,71.27
2019-05-29T17:55:55.798Z,71.50
2019-05-29T17:58:29.511Z,72.31
2019-05-29T18:00:59.032Z,73.20
2019-05-29T18:03:28.461Z,73.83
2019-05-29T18:05:57.839Z,74.01
2019-05-29T18:08:27.207Z,73.06
2019-05-29T18:10:56.580Z,73.92
2019-05-29T18:13:27.484Z,73.30
2019-05-29T18:15:56.951Z,73.35
2019-05-29T18:18:27.703Z,73.50
2019-05-29T18:20:58.182Z,74.77
2019-05-29T18:23:28.193Z,75.60
2019-05-29T18:25:57.693Z,75.82
2019-05-29T18:28:28.162Z,76.08
2019-05-29T18:30:57.752Z,76.39
2019-05-29T18:33:28.923Z,76.67
2019-05-29T18:35:58.738Z,76.78
2019-05-29T18:38:28.707Z,77.07
2019-05-29T18:40:58.471Z,76.90
2019-05-29T18:43:31.450Z,76.07
2019-05-29T18:46:00.884Z,76.15
2019-05-29T18:48:32.314Z,76.65
2019-05-29T18:51:01.478Z,73.03
2019-05-29T18:53:31.146Z,72.93
2019-05-29T18:56:00.452Z,71.18
2019-05-29T18:58:32.516Z,69.79
2019-05-29T19:01:01.904Z,68.98
2019-05-29T19:03:32.584Z,68.79
2019-05-29T19:06:02.766Z,69.12
2019-05-29T19:08:32.136Z,69.62
2019-05-29T19:11:01.503Z,70.93
2019-05-29T19:13:32.030Z,70.80
2019-05-29T19:16:02.978Z,70.98
2019-05-29T19:18:32.578Z,71.42
2019-05-29T19:21:02.154Z,71.53
2019-05-29T19:23:33.035Z,72.06
2019-05-29T19:26:03.659Z,71.69
2019-05-29T19:28:33.135Z,71.86
2019-05-29T19:31:02.514Z,72.53
2019-05-29T19:33:31.887Z,72.31
2019-05-29T19:36:03.006Z,73.03
2019-05-29T19:38:32.487Z,72.88
2019-05-29T19:41:01.991Z,73.31
2019-05-29T19:43:32.365Z,73.11
2019-05-29T19:46:01.851Z,73.59
2019-05-29T19:48:31.288Z,73.70
2019-05-29T19:51:00.677Z,73.83
2019-05-29T19:53:31.365Z,73.92
2019-05-29T19:56:00.936Z,74.01
2019-05-29T19:58:31.784Z,74.07
2019-05-29T20:01:01.466Z,74.55
2019-05-29T20:03:30.829Z,74.44
2019-05-29T20:06:00.864Z,74.47
2019-05-29T20:08:34.037Z,75.40
2019-05-29T20:11:01.896Z,76.04
2019-05-29T20:13:31.739Z,76.17
2019-05-29T20:16:01.187Z,76.61
2019-05-29T20:18:30.575Z,76.89
2019-05-29T20:21:00.101Z,77.39
2019-05-29T20:23:30.558Z,77.44
2019-05-29T20:26:00.257Z,77.58
2019-05-29T20:28:42.565Z,78.07
2019-05-29T20:31:12.374Z,77.60
2019-05-29T20:33:42.794Z,78.21
2019-05-29T20:36:12.866Z,78.21
2019-05-29T20:38:42.680Z,78.17
2019-05-29T20:41:12.221Z,78.60
2019-05-29T20:43:41.912Z,79.16
2019-05-29T20:46:11.646Z,79.06
2019-05-29T20:48:41.132Z,79.75
2019-05-29T20:51:10.566Z,79.79
2019-05-29T20:53:40.412Z,79.47
2019-05-29T20:56:11.010Z,79.79
2019-05-29T20:58:47.874Z,79.12
2019-05-29T21:01:17.162Z,79.31
2019-05-29T21:03:48.838Z,79.42
2019-05-29T21:06:18.299Z,79.55
2019-05-29T21:08:47.681Z,79.80
2019-05-29T21:11:17.144Z,80.27
2019-05-29T21:13:46.641Z,80.33
2019-05-29T21:16:16.131Z,80.22
2019-05-29T21:18:45.677Z,80.18
2019-05-29T21:21:15.074Z,80.31
2019-05-29T21:23:44.735Z,79.41
2019-05-29T21:26:14.190Z,79.87
2019-05-29T21:28:50.612Z,79.98
2019-05-29T21:31:18.000Z,79.31
2019-05-29T21:33:49.377Z,79.75
2019-05-29T21:36:19.266Z,80.35
2019-05-29T21:38:48.657Z,80.76
2019-05-29T21:41:18.262Z,80.99
2019-05-29T21:43:53.373Z,81.42
2019-05-29T21:46:22.816Z,81.97
2019-05-29T21:48:52.290Z,82.02
2019-05-29T21:51:21.853Z,82.35
2019-05-29T21:53:51.213Z,82.58
2019-05-29T21:56:20.665Z,82.56
2019-05-29T21:59:03.419Z,82.76
2019-05-29T22:01:28.823Z,82.77
2019-05-29T22:03:58.446Z,82.98
2019-05-29T22:06:28.008Z,83.28
2019-05-29T22:08:57.595Z,83.28
2019-05-29T22:11:26.976Z,82.98
2019-05-29T22:13:56.608Z,82.93
2019-05-29T22:16:26.845Z,82.66
2019-05-29T22:18:57.026Z,83.00
2019-05-29T22:21:27.545Z,82.45
2019-05-29T22:23:57.186Z,82.56
2019-05-29T22:26:26.704Z,82.14
2019-05-29T22:28:57.334Z,81.73
2019-05-29T22:31:27.633Z,81.52
2019-05-29T22:33:58.047Z,81.76
2019-05-29T22:36:27.625Z,81.40
2019-05-29T22:38:59.568Z,81.97
2019-05-29T22:41:29.229Z,82.16
2019-05-29T22:44:02.620Z,82.57
2019-05-29T22:46:32.300Z,82.28
2019-05-29T22:49:02.100Z,82.27
2019-05-29T22:51:31.571Z,82.42
2019-05-29T22:54:02.067Z,82.54
2019-05-29T22:56:31.595Z,82.47
2019-05-29T22:59:02.144Z,82.68
2019-05-29T23:01:31.997Z,82.81
2019-05-29T23:04:02.512Z,83.96
2019-05-29T23:06:32.116Z,82.29
2019-05-29T23:09:02.577Z,82.17
2019-05-29T23:11:32.001Z,82.37
2019-05-29T23:14:02.554Z,81.79
2019-05-29T23:16:32.179Z,82.35
2019-05-29T23:19:02.773Z,82.50
2019-05-29T23:21:33.216Z,83.07
2019-05-29T23:24:03.752Z,83.40
2019-05-29T23:26:33.229Z,84.09
2019-05-29T23:29:03.903Z,83.98
2019-05-29T23:31:33.422Z,84.10
2019-05-29T23:34:03.316Z,83.86
2019-05-29T23:36:32.857Z,84.14
2019-05-29T23:39:03.399Z,84.62
2019-05-29T23:41:33.027Z,85.04
2019-05-29T23:44:03.708Z,85.77
2019-05-29T23:46:33.304Z,85.75
2019-05-29T23:49:03.991Z,86.00
2019-05-29T23:51:33.514Z,86.15
2019-05-29T23:54:03.936Z,86.17
2019-05-29T23:56:33.379Z,86.37
2019-05-29T23:59:04.024Z,86.18
